sensor_id;sensor_type;location;lat;lon;timestamp;P1;durP1;ratioP1;P2;durP2;ratioP2
49031;SDS011;63443;48.366;10.876;2023-04-24T00:16:05;0.65;;;0.52;;
49031;SDS011;63443;48.366;10.876;2023-04-24T00:18:30;1.77;;;0.88;;
49031;SDS011;63443;48.366;10.876;2023-04-24T00:47:37;2.20;;;0.73;;
49031;SDS011;63443;48.366;10.876;2023-04-24T00:50:03;1.25;;;0.80;;
49031;SDS011;63443;48.366;10.876;2023-04-24T02:56:31;1.55;;;1.15;;
49031;SDS011;63443;48.366;10.876;2023-04-24T02:58:56;1.13;;;1.10;;
49031;SDS011;63443;48.366;10.876;2023-04-24T03:01:22;0.90;;;0.90;;
49031;SDS011;63443;48.366;10.876;2023-04-24T03:03:47;1.20;;;0.55;;
49031;SDS011;63443;48.366;10.876;2023-04-24T03:06:13;0.85;;;0.80;;
49031;SDS011;63443;48.366;10.876;2023-04-24T03:08:38;0.88;;;0.70;;
49031;SDS011;63443;48.366;10.876;2023-04-24T03:11:04;1.83;;;1.10;;
49031;SDS011;63443;48.366;10.876;2023-04-24T03:13:29;2.20;;;1.55;;
49031;SDS011;63443;48.366;10.876;2023-04-24T03:15:55;2.08;;;1.10;;
49031;SDS011;63443;48.366;10.876;2023-04-24T03:18:20;3.65;;;1.33;;
49031;SDS011;63443;48.366;10.876;2023-04-24T03:20:46;1.95;;;0.57;;
49031;SDS011;63443;48.366;10.876;2023-04-24T03:23:12;0.70;;;0.70;;
49031;SDS011;63443;48.366;10.876;2023-04-24T03:25:37;1.05;;;1.00;;
49031;SDS011;63443;48.366;10.876;2023-04-24T03:28:03;1.95;;;1.10;;
49031;SDS011;63443;48.366;10.876;2023-04-24T03:30:29;1.50;;;1.40;;
49031;SDS011;63443;48.366;10.876;2023-04-24T03:32:55;2.42;;;1.45;;
49031;SDS011;63443;48.366;10.876;2023-04-24T03:35:20;1.40;;;1.20;;
49031;SDS011;63443;48.366;10.876;2023-04-24T03:37:46;2.63;;;2.42;;
49031;SDS011;63443;48.366;10.876;2023-04-24T03:40:12;4.53;;;4.13;;
49031;SDS011;63443;48.366;10.876;2023-04-24T03:42:38;3.50;;;2.67;;
49031;SDS011;63443;48.366;10.876;2023-04-24T03:45:04;2.90;;;2.63;;
49031;SDS011;63443;48.366;10.876;2023-04-24T03:47:30;2.00;;;1.90;;
49031;SDS011;63443;48.366;10.876;2023-04-24T03:49:55;3.63;;;1.53;;
49031;SDS011;63443;48.366;10.876;2023-04-24T03:52:21;2.07;;;1.63;;
49031;SDS011;63443;48.366;10.876;2023-04-24T03:54:46;1.80;;;1.40;;
49031;SDS011;63443;48.366;10.876;2023-04-24T03:57:12;2.17;;;1.67;;
49031;SDS011;63443;48.366;10.876;2023-04-24T03:59:37;0.98;;;0.93;;
49031;SDS011;63443;48.366;10.876;2023-04-24T04:02:03;0.85;;;0.85;;
49031;SDS011;63443;48.366;10.876;2023-04-24T04:04:28;2.90;;;1.70;;
49031;SDS011;63443;48.366;10.876;2023-04-24T04:06:54;1.73;;;1.05;;
49031;SDS011;63443;48.366;10.876;2023-04-24T04:09:20;2.00;;;1.38;;
49031;SDS011;63443;48.366;10.876;2023-04-24T04:11:45;1.95;;;1.75;;
49031;SDS011;63443;48.366;10.876;2023-04-24T04:14:11;4.57;;;4.25;;
49031;SDS011;63443;48.366;10.876;2023-04-24T04:16:36;5.30;;;4.90;;
49031;SDS011;63443;48.366;10.876;2023-04-24T04:19:02;1.73;;;1.10;;
49031;SDS011;63443;48.366;10.876;2023-04-24T04:21:28;1.35;;;0.82;;
49031;SDS011;63443;48.366;10.876;2023-04-24T04:23:54;2.20;;;0.90;;
49031;SDS011;63443;48.366;10.876;2023-04-24T04:26:19;1.90;;;1.80;;
49031;SDS011;63443;48.366;10.876;2023-04-24T04:28:46;1.13;;;0.93;;
49031;SDS011;63443;48.366;10.876;2023-04-24T04:31:12;2.22;;;2.03;;
49031;SDS011;63443;48.366;10.876;2023-04-24T04:33:38;1.40;;;1.30;;
49031;SDS011;63443;48.366;10.876;2023-04-24T04:36:04;1.30;;;1.20;;
49031;SDS011;63443;48.366;10.876;2023-04-24T04:38:30;2.67;;;1.70;;
49031;SDS011;63443;48.366;10.876;2023-04-24T04:40:55;1.42;;;1.17;;
49031;SDS011;63443;48.366;10.876;2023-04-24T05:05:16;0.77;;;0.77;;
49031;SDS011;63443;48.366;10.876;2023-04-24T05:07:42;0.73;;;0.73;;
49031;SDS011;63443;48.366;10.876;2023-04-24T05:10:08;2.35;;;0.77;;
49031;SDS011;63443;48.366;10.876;2023-04-24T05:12:34;1.15;;;0.68;;
49031;SDS011;63443;48.366;10.876;2023-04-24T05:15:00;1.17;;;0.60;;
49031;SDS011;63443;48.366;10.876;2023-04-24T05:17:25;0.30;;;0.30;;
49031;SDS011;63443;48.366;10.876;2023-04-24T05:19:51;0.60;;;0.47;;
49031;SDS011;63443;48.366;10.876;2023-04-24T05:22:16;1.65;;;0.60;;
49031;SDS011;63443;48.366;10.876;2023-04-24T05:24:44;0.60;;;0.60;;
49031;SDS011;63443;48.366;10.876;2023-04-24T05:27:10;0.60;;;0.60;;
49031;SDS011;63443;48.366;10.876;2023-04-24T05:29:36;0.40;;;0.40;;
49031;SDS011;63443;48.366;10.876;2023-04-24T05:32:01;1.75;;;1.00;;
49031;SDS011;63443;48.366;10.876;2023-04-24T05:34:27;0.60;;;0.60;;
49031;SDS011;63443;48.366;10.876;2023-04-24T05:36:52;1.85;;;0.60;;
49031;SDS011;63443;48.366;10.876;2023-04-24T05:39:18;0.95;;;0.57;;
49031;SDS011;63443;48.366;10.876;2023-04-24T05:41:44;1.10;;;1.10;;
49031;SDS011;63443;48.366;10.876;2023-04-24T05:44:10;0.80;;;0.80;;
49031;SDS011;63443;48.366;10.876;2023-04-24T05:46:35;0.70;;;0.70;;
49031;SDS011;63443;48.366;10.876;2023-04-24T05:49:01;1.35;;;0.63;;
49031;SDS011;63443;48.366;10.876;2023-04-24T05:51:27;1.35;;;1.35;;
49031;SDS011;63443;48.366;10.876;2023-04-24T05:53:53;0.70;;;0.68;;
49031;SDS011;63443;48.366;10.876;2023-04-24T05:56:19;1.30;;;0.60;;
49031;SDS011;63443;48.366;10.876;2023-04-24T05:58:45;2.72;;;0.60;;
49031;SDS011;63443;48.366;10.876;2023-04-24T06:01:11;0.98;;;0.98;;
49031;SDS011;63443;48.366;10.876;2023-04-24T06:03:37;4.03;;;0.85;;
49031;SDS011;63443;48.366;10.876;2023-04-24T06:06:04;1.42;;;0.60;;
49031;SDS011;63443;48.366;10.876;2023-04-24T06:08:30;0.57;;;0.57;;
49031;SDS011;63443;48.366;10.876;2023-04-24T06:10:56;1.05;;;0.73;;
49031;SDS011;63443;48.366;10.876;2023-04-24T06:13:21;0.73;;;0.73;;
49031;SDS011;63443;48.366;10.876;2023-04-24T06:15:47;0.70;;;0.70;;
49031;SDS011;63443;48.366;10.876;2023-04-24T06:18:13;1.35;;;0.70;;
49031;SDS011;63443;48.366;10.876;2023-04-24T06:20:38;2.20;;;0.75;;
49031;SDS011;63443;48.366;10.876;2023-04-24T06:23:04;1.30;;;0.52;;
49031;SDS011;63443;48.366;10.876;2023-04-24T06:25:30;0.47;;;0.47;;
49031;SDS011;63443;48.366;10.876;2023-04-24T06:27:56;2.28;;;0.80;;
49031;SDS011;63443;48.366;10.876;2023-04-24T06:30:22;0.90;;;0.90;;
49031;SDS011;63443;48.366;10.876;2023-04-24T06:32:48;0.77;;;0.70;;
49031;SDS011;63443;48.366;10.876;2023-04-24T06:35:13;0.55;;;0.55;;
49031;SDS011;63443;48.366;10.876;2023-04-24T06:37:42;0.40;;;0.40;;
49031;SDS011;63443;48.366;10.876;2023-04-24T06:40:08;1.58;;;0.63;;
49031;SDS011;63443;48.366;10.876;2023-04-24T06:42:35;0.65;;;0.65;;
49031;SDS011;63443;48.366;10.876;2023-04-24T06:45:00;0.60;;;0.60;;
49031;SDS011;63443;48.366;10.876;2023-04-24T06:47:26;0.40;;;0.40;;
49031;SDS011;63443;48.366;10.876;2023-04-24T06:49:52;2.10;;;0.50;;
49031;SDS011;63443;48.366;10.876;2023-04-24T06:52:18;0.30;;;0.30;;
49031;SDS011;63443;48.366;10.876;2023-04-24T06:54:44;1.55;;;0.40;;
49031;SDS011;63443;48.366;10.876;2023-04-24T06:57:10;0.50;;;0.50;;
49031;SDS011;63443;48.366;10.876;2023-04-24T06:59:35;0.70;;;0.57;;
49031;SDS011;63443;48.366;10.876;2023-04-24T07:02:01;0.63;;;0.63;;
49031;SDS011;63443;48.366;10.876;2023-04-24T07:04:27;0.63;;;0.30;;
49031;SDS011;63443;48.366;10.876;2023-04-24T07:06:53;4.53;;;0.82;;
49031;SDS011;63443;48.366;10.876;2023-04-24T07:09:20;1.05;;;0.82;;
49031;SDS011;63443;48.366;10.876;2023-04-24T07:11:47;2.17;;;0.55;;
49031;SDS011;63443;48.366;10.876;2023-04-24T07:14:13;1.50;;;0.50;;
49031;SDS011;63443;48.366;10.876;2023-04-24T07:16:38;0.60;;;0.60;;
49031;SDS011;63443;48.366;10.876;2023-04-24T07:19:04;0.65;;;0.63;;
49031;SDS011;63443;48.366;10.876;2023-04-24T07:21:31;0.80;;;0.80;;
49031;SDS011;63443;48.366;10.876;2023-04-24T07:23:57;0.60;;;0.60;;
49031;SDS011;63443;48.366;10.876;2023-04-24T07:26:23;0.52;;;0.43;;
49031;SDS011;63443;48.366;10.876;2023-04-24T07:28:49;0.60;;;0.50;;
49031;SDS011;63443;48.366;10.876;2023-04-24T07:31:14;0.30;;;0.30;;
49031;SDS011;63443;48.366;10.876;2023-04-24T07:33:40;1.05;;;0.63;;
49031;SDS011;63443;48.366;10.876;2023-04-24T07:36:06;0.40;;;0.40;;
49031;SDS011;63443;48.366;10.876;2023-04-24T07:38:31;1.02;;;0.88;;
49031;SDS011;63443;48.366;10.876;2023-04-24T07:40:57;1.55;;;0.70;;
49031;SDS011;63443;48.366;10.876;2023-04-24T07:43:22;1.95;;;0.70;;
49031;SDS011;63443;48.366;10.876;2023-04-24T07:45:49;0.85;;;0.85;;
49031;SDS011;63443;48.366;10.876;2023-04-24T07:48:15;1.52;;;0.50;;
49031;SDS011;63443;48.366;10.876;2023-04-24T07:50:42;2.00;;;0.82;;
49031;SDS011;63443;48.366;10.876;2023-04-24T07:53:08;0.50;;;0.50;;
49031;SDS011;63443;48.366;10.876;2023-04-24T07:55:34;1.30;;;0.43;;
49031;SDS011;63443;48.366;10.876;2023-04-24T07:58:00;0.50;;;0.50;;
49031;SDS011;63443;48.366;10.876;2023-04-24T08:00:25;0.55;;;0.55;;
49031;SDS011;63443;48.366;10.876;2023-04-24T08:02:51;1.33;;;0.82;;
49031;SDS011;63443;48.366;10.876;2023-04-24T08:05:16;0.73;;;0.70;;
49031;SDS011;63443;48.366;10.876;2023-04-24T08:07:42;1.42;;;1.08;;
49031;SDS011;63443;48.366;10.876;2023-04-24T08:10:09;1.70;;;0.65;;
49031;SDS011;63443;48.366;10.876;2023-04-24T08:12:35;0.43;;;0.43;;
49031;SDS011;63443;48.366;10.876;2023-04-24T08:15:01;0.90;;;0.90;;
49031;SDS011;63443;48.366;10.876;2023-04-24T08:17:27;3.70;;;0.73;;
49031;SDS011;63443;48.366;10.876;2023-04-24T08:19:53;1.23;;;1.13;;
49031;SDS011;63443;48.366;10.876;2023-04-24T08:22:26;0.93;;;0.70;;
49031;SDS011;63443;48.366;10.876;2023-04-24T08:24:52;0.98;;;0.98;;
49031;SDS011;63443;48.366;10.876;2023-04-24T08:27:17;0.65;;;0.63;;
49031;SDS011;63443;48.366;10.876;2023-04-24T08:29:43;2.15;;;0.90;;
49031;SDS011;63443;48.366;10.876;2023-04-24T08:32:09;2.22;;;1.13;;
49031;SDS011;63443;48.366;10.876;2023-04-24T08:34:34;1.20;;;1.10;;
49031;SDS011;63443;48.366;10.876;2023-04-24T08:37:00;2.17;;;0.85;;
49031;SDS011;63443;48.366;10.876;2023-04-24T08:39:25;1.40;;;0.90;;
49031;SDS011;63443;48.366;10.876;2023-04-24T08:41:51;1.35;;;0.70;;
49031;SDS011;63443;48.366;10.876;2023-04-24T08:44:17;2.92;;;1.40;;
49031;SDS011;63443;48.366;10.876;2023-04-24T08:46:44;1.88;;;1.20;;
49031;SDS011;63443;48.366;10.876;2023-04-24T08:49:13;2.13;;;1.10;;
49031;SDS011;63443;48.366;10.876;2023-04-24T08:51:41;0.95;;;0.90;;
49031;SDS011;63443;48.366;10.876;2023-04-24T08:54:07;1.30;;;1.10;;
49031;SDS011;63443;48.366;10.876;2023-04-24T08:56:34;3.53;;;1.77;;
49031;SDS011;63443;48.366;10.876;2023-04-24T08:59:05;4.53;;;1.35;;
49031;SDS011;63443;48.366;10.876;2023-04-24T09:01:31;0.73;;;0.73;;
49031;SDS011;63443;48.366;10.876;2023-04-24T10:02:55;1.33;;;1.23;;
49031;SDS011;63443;48.366;10.876;2023-04-24T10:05:23;2.35;;;1.50;;
49031;SDS011;63443;48.366;10.876;2023-04-24T10:07:56;1.30;;;1.20;;
49031;SDS011;63443;48.366;10.876;2023-04-24T10:10:33;1.13;;;1.13;;
49031;SDS011;63443;48.366;10.876;2023-04-24T10:13:00;2.92;;;1.02;;
49031;SDS011;63443;48.366;10.876;2023-04-24T10:15:26;0.40;;;0.40;;
49031;SDS011;63443;48.366;10.876;2023-04-24T10:25:14;1.50;;;1.40;;
49031;SDS011;63443;48.366;10.876;2023-04-24T10:27:42;3.00;;;1.65;;
49031;SDS011;63443;48.366;10.876;2023-04-24T10:30:08;1.27;;;1.02;;
49031;SDS011;63443;48.366;10.876;2023-04-24T10:32:36;2.30;;;1.40;;
49031;SDS011;63443;48.366;10.876;2023-04-24T10:35:01;1.75;;;0.82;;
49031;SDS011;63443;48.366;10.876;2023-04-24T10:37:27;2.15;;;1.67;;
49031;SDS011;63443;48.366;10.876;2023-04-24T10:39:53;1.75;;;0.70;;
49031;SDS011;63443;48.366;10.876;2023-04-24T10:42:20;2.97;;;0.82;;
49031;SDS011;63443;48.366;10.876;2023-04-24T10:44:47;0.68;;;0.68;;
49031;SDS011;63443;48.366;10.876;2023-04-24T10:47:13;2.90;;;0.95;;
49031;SDS011;63443;48.366;10.876;2023-04-24T10:49:39;1.23;;;1.13;;
49031;SDS011;63443;48.366;10.876;2023-04-24T10:52:05;1.67;;;0.88;;
49031;SDS011;63443;48.366;10.876;2023-04-24T10:59:45;4.97;;;2.50;;
49031;SDS011;63443;48.366;10.876;2023-04-24T11:02:13;1.13;;;1.13;;
49031;SDS011;63443;48.366;10.876;2023-04-24T11:04:40;2.05;;;1.17;;
49031;SDS011;63443;48.366;10.876;2023-04-24T11:07:08;2.85;;;1.20;;
49031;SDS011;63443;48.366;10.876;2023-04-24T11:09:34;1.40;;;1.30;;
49031;SDS011;63443;48.366;10.876;2023-04-24T11:12:05;3.03;;;1.50;;
49031;SDS011;63443;48.366;10.876;2023-04-24T11:17:28;2.55;;;1.52;;
49031;SDS011;63443;48.366;10.876;2023-04-24T11:20:09;1.75;;;1.45;;
49031;SDS011;63443;48.366;10.876;2023-04-24T11:22:36;3.05;;;1.10;;
49031;SDS011;63443;48.366;10.876;2023-04-24T11:25:04;2.40;;;1.20;;
49031;SDS011;63443;48.366;10.876;2023-04-24T11:27:33;2.45;;;0.90;;
49031;SDS011;63443;48.366;10.876;2023-04-24T11:30:07;1.55;;;1.00;;
49031;SDS011;63443;48.366;10.876;2023-04-24T11:32:40;1.05;;;0.95;;
49031;SDS011;63443;48.366;10.876;2023-04-24T11:35:14;2.50;;;1.13;;
49031;SDS011;63443;48.366;10.876;2023-04-24T11:37:43;1.45;;;1.35;;
49031;SDS011;63443;48.366;10.876;2023-04-24T11:40:14;1.13;;;1.00;;
49031;SDS011;63443;48.366;10.876;2023-04-24T11:42:41;3.10;;;1.00;;
49031;SDS011;63443;48.366;10.876;2023-04-24T11:47:40;3.15;;;1.00;;
49031;SDS011;63443;48.366;10.876;2023-04-24T11:50:08;1.20;;;1.02;;
49031;SDS011;63443;48.366;10.876;2023-04-24T11:52:41;2.00;;;1.10;;
49031;SDS011;63443;48.366;10.876;2023-04-24T11:55:12;3.90;;;1.10;;
49031;SDS011;63443;48.366;10.876;2023-04-24T11:57:48;1.23;;;1.08;;
49031;SDS011;63443;48.366;10.876;2023-04-24T12:00:16;1.52;;;1.30;;
49031;SDS011;63443;48.366;10.876;2023-04-24T12:02:43;1.67;;;1.00;;
49031;SDS011;63443;48.366;10.876;2023-04-24T12:05:16;3.97;;;1.20;;
49031;SDS011;63443;48.366;10.876;2023-04-24T12:07:47;1.83;;;1.02;;
49031;SDS011;63443;48.366;10.876;2023-04-24T12:10:13;4.20;;;1.10;;
49031;SDS011;63443;48.366;10.876;2023-04-24T12:12:39;2.75;;;1.48;;
49031;SDS011;63443;48.366;10.876;2023-04-24T12:15:08;1.60;;;0.80;;
49031;SDS011;63443;48.366;10.876;2023-04-24T12:17:35;1.35;;;0.80;;
49031;SDS011;63443;48.366;10.876;2023-04-24T12:20:04;1.52;;;1.08;;
49031;SDS011;63443;48.366;10.876;2023-04-24T12:25:19;0.80;;;0.80;;
49031;SDS011;63443;48.366;10.876;2023-04-24T12:27:51;1.38;;;1.27;;
49031;SDS011;63443;48.366;10.876;2023-04-24T12:30:33;2.10;;;0.90;;
49031;SDS011;63443;48.366;10.876;2023-04-24T12:33:02;1.33;;;1.00;;
49031;SDS011;63443;48.366;10.876;2023-04-24T12:35:28;1.33;;;0.98;;
49031;SDS011;63443;48.366;10.876;2023-04-24T12:38:04;2.08;;;0.88;;
49031;SDS011;63443;48.366;10.876;2023-04-24T12:40:33;1.77;;;1.00;;
49031;SDS011;63443;48.366;10.876;2023-04-24T12:42:59;2.67;;;0.82;;
49031;SDS011;63443;48.366;10.876;2023-04-24T12:45:24;1.20;;;0.82;;
49031;SDS011;63443;48.366;10.876;2023-04-24T12:47:52;0.57;;;0.57;;
49031;SDS011;63443;48.366;10.876;2023-04-24T12:50:18;1.00;;;0.73;;
49031;SDS011;63443;48.366;10.876;2023-04-24T12:52:44;1.00;;;0.90;;
49031;SDS011;63443;48.366;10.876;2023-04-24T12:55:10;0.73;;;0.73;;
49031;SDS011;63443;48.366;10.876;2023-04-24T12:57:37;2.65;;;1.40;;
49031;SDS011;63443;48.366;10.876;2023-04-24T13:00:04;1.77;;;0.93;;
49031;SDS011;63443;48.366;10.876;2023-04-24T13:02:31;1.48;;;1.00;;
49031;SDS011;63443;48.366;10.876;2023-04-24T13:04:57;1.40;;;1.02;;
49031;SDS011;63443;48.366;10.876;2023-04-24T13:07:23;0.80;;;0.80;;
49031;SDS011;63443;48.366;10.876;2023-04-24T13:09:50;0.80;;;0.70;;
49031;SDS011;63443;48.366;10.876;2023-04-24T13:14:41;0.70;;;0.60;;
49031;SDS011;63443;48.366;10.876;2023-04-24T13:17:07;1.13;;;0.95;;
49031;SDS011;63443;48.366;10.876;2023-04-24T13:19:37;1.48;;;0.82;;
49031;SDS011;63443;48.366;10.876;2023-04-24T13:22:04;1.13;;;0.65;;
49031;SDS011;63443;48.366;10.876;2023-04-24T13:24:30;3.70;;;0.50;;
49031;SDS011;63443;48.366;10.876;2023-04-24T13:26:56;1.17;;;0.60;;
49031;SDS011;63443;48.366;10.876;2023-04-24T13:29:22;2.50;;;0.88;;
49031;SDS011;63443;48.366;10.876;2023-04-24T13:31:49;3.05;;;1.25;;
49031;SDS011;63443;48.366;10.876;2023-04-24T13:34:15;0.93;;;0.70;;
49031;SDS011;63443;48.366;10.876;2023-04-24T13:36:41;1.00;;;0.60;;
49031;SDS011;63443;48.366;10.876;2023-04-24T13:39:07;1.35;;;1.25;;
49031;SDS011;63443;48.366;10.876;2023-04-24T13:41:33;0.95;;;0.52;;
49031;SDS011;63443;48.366;10.876;2023-04-24T13:43:59;1.88;;;1.10;;
49031;SDS011;63443;48.366;10.876;2023-04-24T13:46:24;0.85;;;0.70;;
49031;SDS011;63443;48.366;10.876;2023-04-24T13:48:50;2.08;;;1.00;;
49031;SDS011;63443;48.366;10.876;2023-04-24T13:51:16;0.82;;;0.73;;
49031;SDS011;63443;48.366;10.876;2023-04-24T13:53:41;9.57;;;1.30;;
49031;SDS011;63443;48.366;10.876;2023-04-24T13:56:07;3.85;;;1.00;;
49031;SDS011;63443;48.366;10.876;2023-04-24T13:58:33;0.80;;;0.65;;
49031;SDS011;63443;48.366;10.876;2023-04-24T14:01:00;3.22;;;1.00;;
49031;SDS011;63443;48.366;10.876;2023-04-24T14:03:26;1.67;;;1.30;;
49031;SDS011;63443;48.366;10.876;2023-04-24T14:05:52;2.65;;;1.00;;
49031;SDS011;63443;48.366;10.876;2023-04-24T14:08:17;1.98;;;1.02;;
49031;SDS011;63443;48.366;10.876;2023-04-24T14:10:43;2.08;;;0.85;;
49031;SDS011;63443;48.366;10.876;2023-04-24T14:13:08;2.58;;;0.88;;
49031;SDS011;63443;48.366;10.876;2023-04-24T14:15:35;1.35;;;0.63;;
49031;SDS011;63443;48.366;10.876;2023-04-24T14:18:01;2.03;;;0.52;;
49031;SDS011;63443;48.366;10.876;2023-04-24T14:20:26;0.50;;;0.50;;
49031;SDS011;63443;48.366;10.876;2023-04-24T14:22:52;0.80;;;0.75;;
49031;SDS011;63443;48.366;10.876;2023-04-24T14:25:18;1.05;;;0.63;;
49031;SDS011;63443;48.366;10.876;2023-04-24T14:27:43;1.23;;;0.60;;
49031;SDS011;63443;48.366;10.876;2023-04-24T14:30:10;1.05;;;0.50;;
49031;SDS011;63443;48.366;10.876;2023-04-24T14:32:37;1.25;;;0.57;;
49031;SDS011;63443;48.366;10.876;2023-04-24T14:35:04;0.82;;;0.50;;
49031;SDS011;63443;48.366;10.876;2023-04-24T14:37:31;0.40;;;0.28;;
49031;SDS011;63443;48.366;10.876;2023-04-24T14:39:56;1.20;;;0.68;;
49031;SDS011;63443;48.366;10.876;2023-04-24T14:42:22;0.90;;;0.40;;
49031;SDS011;63443;48.366;10.876;2023-04-24T14:44:48;2.10;;;0.22;;
49031;SDS011;63443;48.366;10.876;2023-04-24T14:47:13;1.15;;;0.52;;
49031;SDS011;63443;48.366;10.876;2023-04-24T14:49:39;1.48;;;0.50;;
49031;SDS011;63443;48.366;10.876;2023-04-24T14:52:05;1.10;;;0.20;;
49031;SDS011;63443;48.366;10.876;2023-04-24T14:54:31;1.35;;;0.70;;
49031;SDS011;63443;48.366;10.876;2023-04-24T14:56:56;3.58;;;0.50;;
49031;SDS011;63443;48.366;10.876;2023-04-24T14:59:22;0.85;;;0.20;;
49031;SDS011;63443;48.366;10.876;2023-04-24T15:01:48;2.53;;;0.35;;
49031;SDS011;63443;48.366;10.876;2023-04-24T15:04:14;0.80;;;0.47;;
49031;SDS011;63443;48.366;10.876;2023-04-24T15:06:40;0.40;;;0.40;;
49031;SDS011;63443;48.366;10.876;2023-04-24T15:11:31;0.77;;;0.70;;
49031;SDS011;63443;48.366;10.876;2023-04-24T15:13:57;1.85;;;0.50;;
49031;SDS011;63443;48.366;10.876;2023-04-24T15:16:23;0.98;;;0.40;;
49031;SDS011;63443;48.366;10.876;2023-04-24T15:18:49;1.65;;;0.30;;
49031;SDS011;63443;48.366;10.876;2023-04-24T15:21:14;0.60;;;0.60;;
49031;SDS011;63443;48.366;10.876;2023-04-24T15:23:40;0.50;;;0.50;;
49031;SDS011;63443;48.366;10.876;2023-04-24T15:26:05;0.70;;;0.50;;
49031;SDS011;63443;48.366;10.876;2023-04-24T15:28:31;1.20;;;0.70;;
49031;SDS011;63443;48.366;10.876;2023-04-24T15:30:56;1.13;;;0.47;;
49031;SDS011;63443;48.366;10.876;2023-04-24T15:33:22;3.33;;;0.60;;
49031;SDS011;63443;48.366;10.876;2023-04-24T15:35:48;1.55;;;0.95;;
49031;SDS011;63443;48.366;10.876;2023-04-24T15:38:13;0.60;;;0.60;;
49031;SDS011;63443;48.366;10.876;2023-04-24T15:40:39;2.63;;;0.93;;
49031;SDS011;63443;48.366;10.876;2023-04-24T15:43:05;0.57;;;0.57;;
49031;SDS011;63443;48.366;10.876;2023-04-24T15:45:30;3.60;;;0.38;;
49031;SDS011;63443;48.366;10.876;2023-04-24T15:47:57;1.50;;;1.10;;
49031;SDS011;63443;48.366;10.876;2023-04-24T15:50:22;0.63;;;0.63;;
49031;SDS011;63443;48.366;10.876;2023-04-24T15:52:49;1.35;;;0.77;;
49031;SDS011;63443;48.366;10.876;2023-04-24T15:55:14;1.77;;;0.68;;
49031;SDS011;63443;48.366;10.876;2023-04-24T15:57:40;1.02;;;0.90;;
49031;SDS011;63443;48.366;10.876;2023-04-24T16:00:07;1.08;;;0.95;;
49031;SDS011;63443;48.366;10.876;2023-04-24T16:02:36;1.58;;;0.88;;
49031;SDS011;63443;48.366;10.876;2023-04-24T16:05:01;0.90;;;0.85;;
49031;SDS011;63443;48.366;10.876;2023-04-24T16:07:27;0.73;;;0.73;;
49031;SDS011;63443;48.366;10.876;2023-04-24T16:09:52;1.17;;;0.60;;
49031;SDS011;63443;48.366;10.876;2023-04-24T16:12:18;0.80;;;0.70;;
49031;SDS011;63443;48.366;10.876;2023-04-24T16:14:44;0.40;;;0.40;;
49031;SDS011;63443;48.366;10.876;2023-04-24T16:17:09;1.13;;;0.63;;
49031;SDS011;63443;48.366;10.876;2023-04-24T16:19:35;0.63;;;0.63;;
49031;SDS011;63443;48.366;10.876;2023-04-24T16:22:01;1.00;;;0.80;;
49031;SDS011;63443;48.366;10.876;2023-04-24T16:24:28;0.60;;;0.60;;
49031;SDS011;63443;48.366;10.876;2023-04-24T16:26:54;2.47;;;1.20;;
49031;SDS011;63443;48.366;10.876;2023-04-24T16:29:20;0.50;;;0.50;;
49031;SDS011;63443;48.366;10.876;2023-04-24T16:31:46;1.10;;;0.70;;
49031;SDS011;63443;48.366;10.876;2023-04-24T16:34:12;0.95;;;0.95;;
49031;SDS011;63443;48.366;10.876;2023-04-24T16:36:37;1.00;;;0.60;;
49031;SDS011;63443;48.366;10.876;2023-04-24T16:39:03;1.25;;;0.93;;
49031;SDS011;63443;48.366;10.876;2023-04-24T16:41:29;2.15;;;0.90;;
49031;SDS011;63443;48.366;10.876;2023-04-24T16:43:55;2.67;;;1.02;;
49031;SDS011;63443;48.366;10.876;2023-04-24T16:46:21;3.00;;;0.68;;
49031;SDS011;63443;48.366;10.876;2023-04-24T16:48:47;0.90;;;0.90;;
49031;SDS011;63443;48.366;10.876;2023-04-24T16:51:13;1.13;;;0.80;;
49031;SDS011;63443;48.366;10.876;2023-04-24T16:53:38;1.48;;;0.80;;
49031;SDS011;63443;48.366;10.876;2023-04-24T16:56:04;1.35;;;1.00;;
49031;SDS011;63443;48.366;10.876;2023-04-24T16:58:30;1.60;;;0.98;;
49031;SDS011;63443;48.366;10.876;2023-04-24T17:00:56;1.50;;;1.40;;
49031;SDS011;63443;48.366;10.876;2023-04-24T17:03:21;4.25;;;2.47;;
49031;SDS011;63443;48.366;10.876;2023-04-24T17:05:47;2.17;;;1.58;;
49031;SDS011;63443;48.366;10.876;2023-04-24T17:08:13;4.25;;;1.25;;
49031;SDS011;63443;48.366;10.876;2023-04-24T17:10:39;1.05;;;1.05;;
49031;SDS011;63443;48.366;10.876;2023-04-24T17:13:06;1.15;;;1.08;;
49031;SDS011;63443;48.366;10.876;2023-04-24T17:15:32;2.60;;;1.05;;
49031;SDS011;63443;48.366;10.876;2023-04-24T17:17:58;2.30;;;1.13;;
49031;SDS011;63443;48.366;10.876;2023-04-24T17:20:24;1.17;;;0.98;;
49031;SDS011;63443;48.366;10.876;2023-04-24T17:22:50;2.33;;;1.10;;
49031;SDS011;63443;48.366;10.876;2023-04-24T17:25:15;1.38;;;0.77;;
49031;SDS011;63443;48.366;10.876;2023-04-24T17:27:41;0.85;;;0.85;;
49031;SDS011;63443;48.366;10.876;2023-04-24T17:30:07;1.45;;;1.08;;
49031;SDS011;63443;48.366;10.876;2023-04-24T17:32:32;2.95;;;1.20;;
49031;SDS011;63443;48.366;10.876;2023-04-24T17:34:58;3.05;;;1.80;;
49031;SDS011;63443;48.366;10.876;2023-04-24T17:37:23;1.45;;;1.13;;
49031;SDS011;63443;48.366;10.876;2023-04-24T17:39:49;4.28;;;1.75;;
49031;SDS011;63443;48.366;10.876;2023-04-24T17:42:15;3.17;;;1.90;;
49031;SDS011;63443;48.366;10.876;2023-04-24T17:44:41;3.80;;;1.77;;
49031;SDS011;63443;48.366;10.876;2023-04-24T17:47:06;1.60;;;1.50;;
49031;SDS011;63443;48.366;10.876;2023-04-24T17:49:32;2.88;;;1.30;;
49031;SDS011;63443;48.366;10.876;2023-04-24T17:51:58;4.40;;;1.10;;
49031;SDS011;63443;48.366;10.876;2023-04-24T17:54:23;3.58;;;1.70;;
49031;SDS011;63443;48.366;10.876;2023-04-24T17:56:49;2.35;;;1.33;;
49031;SDS011;63443;48.366;10.876;2023-04-24T17:59:16;1.50;;;1.38;;
49031;SDS011;63443;48.366;10.876;2023-04-24T18:01:43;1.77;;;1.45;;
49031;SDS011;63443;48.366;10.876;2023-04-24T18:04:08;1.75;;;1.65;;
49031;SDS011;63443;48.366;10.876;2023-04-24T18:06:34;1.27;;;1.20;;
49031;SDS011;63443;48.366;10.876;2023-04-24T18:09:00;3.05;;;1.83;;
49031;SDS011;63443;48.366;10.876;2023-04-24T18:11:26;2.20;;;1.38;;
49031;SDS011;63443;48.366;10.876;2023-04-24T18:13:52;1.80;;;1.40;;
49031;SDS011;63443;48.366;10.876;2023-04-24T18:16:18;1.60;;;1.50;;
49031;SDS011;63443;48.366;10.876;2023-04-24T18:18:44;2.85;;;2.20;;
49031;SDS011;63443;48.366;10.876;2023-04-24T18:21:09;4.53;;;1.70;;
49031;SDS011;63443;48.366;10.876;2023-04-24T18:23:35;2.65;;;1.50;;
49031;SDS011;63443;48.366;10.876;2023-04-24T18:26:00;1.90;;;1.65;;
49031;SDS011;63443;48.366;10.876;2023-04-24T18:28:26;1.60;;;1.50;;
49031;SDS011;63443;48.366;10.876;2023-04-24T18:30:55;2.58;;;1.77;;
49031;SDS011;63443;48.366;10.876;2023-04-24T18:33:21;1.65;;;1.55;;
49031;SDS011;63443;48.366;10.876;2023-04-24T18:35:47;2.33;;;2.22;;
49031;SDS011;63443;48.366;10.876;2023-04-24T18:38:13;2.58;;;2.38;;
49031;SDS011;63443;48.366;10.876;2023-04-24T18:40:38;2.20;;;1.98;;
49031;SDS011;63443;48.366;10.876;2023-04-24T18:43:04;1.63;;;1.52;;
49031;SDS011;63443;48.366;10.876;2023-04-24T18:45:30;3.80;;;1.50;;
49031;SDS011;63443;48.366;10.876;2023-04-24T18:47:56;3.20;;;1.98;;
49031;SDS011;63443;48.366;10.876;2023-04-24T18:50:21;2.83;;;2.05;;
49031;SDS011;63443;48.366;10.876;2023-04-24T18:52:47;3.60;;;2.33;;
49031;SDS011;63443;48.366;10.876;2023-04-24T18:55:12;2.20;;;2.10;;
49031;SDS011;63443;48.366;10.876;2023-04-24T18:57:38;2.05;;;1.85;;
49031;SDS011;63443;48.366;10.876;2023-04-24T19:00:04;2.33;;;1.88;;